createdAt,value
2019-05-05T00:02:14.433Z,3.10
2019-05-05T00:05:00.288Z,3.10
2019-05-05T00:07:30.379Z,3.10
2019-05-05T00:09:58.087Z,3.10
2019-05-05T00:12:44.829Z,3.10
2019-05-05T00:15:56.053Z,3.10
2019-05-05T00:18:25.961Z,3.10
2019-05-05T00:20:55.202Z,3.00
2019-05-05T00:23:22.695Z,3.10
2019-05-05T00:25:50.182Z,2.90
2019-05-05T00:28:17.655Z,2.90
2019-05-05T00:30:45.149Z,2.80
2019-05-05T00:33:14.497Z,2.80
2019-05-05T00:35:41.972Z,2.80
2019-05-05T00:38:09.442Z,2.80
2019-05-05T00:40:36.937Z,2.70
2019-05-05T00:43:05.390Z,2.70
2019-05-05T00:45:34.480Z,2.70
2019-05-05T00:48:16.966Z,2.70
2019-05-05T00:50:44.962Z,2.80
2019-05-05T00:53:14.609Z,2.80
2019-05-05T00:55:44.116Z,2.90
2019-05-05T00:58:11.710Z,2.90
2019-05-05T01:00:58.706Z,2.80
2019-05-05T01:03:27.559Z,2.70
2019-05-05T01:06:14.971Z,2.70
2019-05-05T01:08:42.059Z,2.60
2019-05-05T01:11:10.043Z,2.60
2019-05-05T01:13:37.577Z,2.60
2019-05-05T01:16:05.055Z,2.60
2019-05-05T01:18:32.530Z,2.60
2019-05-05T01:21:00.000Z,2.60
2019-05-05T01:23:27.677Z,2.50
2019-05-05T01:25:55.140Z,2.40
2019-05-05T01:28:24.763Z,2.50
2019-05-05T01:30:55.028Z,2.40
2019-05-05T01:33:57.537Z,2.40
2019-05-05T01:36:25.097Z,2.30
2019-05-05T01:39:11.308Z,2.30
2019-05-05T01:41:45.191Z,2.20
2019-05-05T01:44:12.271Z,2.30
2019-05-05T01:46:39.811Z,2.30
2019-05-05T01:49:07.291Z,2.30
2019-05-05T01:51:35.479Z,2.20
2019-05-05T01:54:05.174Z,2.20
2019-05-05T01:56:35.178Z,2.10
2019-05-05T01:59:04.992Z,2.20
2019-05-05T02:01:32.173Z,2.20
2019-05-05T02:03:59.679Z,2.10
2019-05-05T02:06:27.480Z,2.10
2019-05-05T02:08:55.046Z,2.10
2019-05-05T02:11:24.535Z,2.10
2019-05-05T02:13:51.729Z,2.20
2019-05-05T02:16:19.174Z,2.20
2019-05-05T02:18:46.664Z,2.30
2019-05-05T02:21:14.323Z,2.30
2019-05-05T02:23:41.760Z,2.40
2019-05-05T02:26:09.249Z,2.50
2019-05-05T02:28:46.526Z,2.60
2019-05-05T02:31:27.095Z,2.50
2019-05-05T02:33:56.839Z,2.50
2019-05-05T02:36:25.747Z,2.50
2019-05-05T02:38:56.461Z,2.40
2019-05-05T02:41:25.462Z,2.50
2019-05-05T02:43:55.700Z,2.40
2019-05-05T02:46:31.406Z,2.40
2019-05-05T02:49:01.094Z,2.40
2019-05-05T02:51:29.996Z,2.40
2019-05-05T02:54:00.315Z,2.30
2019-05-05T02:56:39.602Z,2.40
2019-05-05T02:59:10.843Z,2.20
2019-05-05T03:01:53.988Z,2.20
2019-05-05T03:04:24.323Z,2.20
2019-05-05T03:06:55.133Z,2.20
2019-05-05T03:09:24.703Z,2.10
2019-05-05T03:11:56.145Z,2.00
2019-05-05T03:14:25.701Z,2.10
2019-05-05T03:16:54.155Z,2.00
2019-05-05T03:19:23.660Z,2.00
2019-05-05T03:21:51.091Z,2.00
2019-05-05T03:24:18.675Z,1.90
2019-05-05T03:26:46.695Z,1.80
2019-05-05T03:29:18.291Z,1.90
2019-05-05T03:31:47.334Z,1.80
2019-05-05T03:34:16.406Z,1.80
2019-05-05T03:36:44.657Z,1.80
2019-05-05T03:39:19.681Z,1.70
2019-05-05T03:41:57.541Z,1.80
2019-05-05T03:44:33.452Z,1.70
2019-05-05T03:47:01.087Z,1.60
2019-05-05T03:49:29.911Z,1.60
2019-05-05T03:51:57.579Z,1.70
2019-05-05T03:54:25.878Z,1.70
2019-05-05T03:57:08.659Z,1.70
2019-05-05T03:59:41.090Z,1.60
2019-05-05T04:02:34.166Z,1.60
2019-05-05T04:05:17.844Z,1.70
2019-05-05T04:07:45.605Z,1.70
2019-05-05T04:10:14.007Z,1.70
2019-05-05T04:12:43.487Z,1.60
2019-05-05T04:15:11.181Z,1.70
2019-05-05T04:18:01.132Z,1.70
2019-05-05T04:20:31.209Z,1.60
2019-05-05T04:22:59.004Z,1.60
2019-05-05T04:25:26.780Z,1.60
2019-05-05T04:27:54.297Z,1.60
2019-05-05T04:30:23.681Z,1.60
2019-05-05T04:32:51.158Z,1.60
2019-05-05T04:35:18.680Z,1.60
2019-05-05T04:37:46.129Z,1.60
2019-05-05T04:40:14.882Z,1.60
2019-05-05T04:42:44.102Z,1.60
2019-05-05T04:45:11.889Z,1.60
2019-05-05T04:47:43.593Z,1.60
2019-05-05T04:50:21.520Z,1.70
2019-05-05T04:52:49.842Z,1.70
2019-05-05T04:55:17.368Z,1.70
2019-05-05T04:57:44.880Z,1.70
2019-05-05T05:00:13.762Z,1.90
2019-05-05T05:03:06.899Z,1.90
2019-05-05T05:05:53.637Z,1.90
2019-05-05T05:08:21.236Z,2.00
2019-05-05T05:10:48.730Z,2.00
2019-05-05T05:13:16.301Z,2.00
2019-05-05T05:15:44.617Z,2.00
2019-05-05T05:18:15.314Z,2.10
2019-05-05T05:20:44.302Z,2.10
2019-05-05T05:23:14.130Z,2.20
2019-05-05T05:25:43.703Z,2.20
2019-05-05T05:28:11.010Z,2.20
2019-05-05T05:30:38.711Z,2.30
2019-05-05T05:33:06.244Z,2.30
2019-05-05T05:35:33.788Z,2.40
2019-05-05T05:38:01.251Z,2.50
2019-05-05T05:40:41.534Z,2.50
2019-05-05T05:43:13.912Z,2.60
2019-05-05T05:45:57.032Z,2.60
2019-05-05T05:48:34.068Z,2.60
2019-05-05T05:51:04.512Z,2.70
2019-05-05T05:53:31.968Z,2.70
2019-05-05T05:55:59.399Z,2.70
2019-05-05T05:58:26.902Z,2.70
2019-05-05T06:00:56.070Z,2.70
2019-05-05T06:03:24.545Z,2.80
2019-05-05T06:05:53.887Z,2.80
2019-05-05T06:08:21.659Z,2.70
2019-05-05T06:10:49.155Z,2.80
2019-05-05T06:13:16.615Z,2.90
2019-05-05T06:15:44.465Z,2.90
2019-05-05T06:18:13.847Z,3.00
2019-05-05T06:20:41.523Z,3.00
2019-05-05T06:23:34.474Z,3.10
2019-05-05T06:26:06.281Z,3.20
2019-05-05T06:28:31.336Z,3.20
2019-05-05T06:30:58.923Z,3.30
2019-05-05T06:33:26.655Z,3.40
2019-05-05T06:35:54.104Z,3.50
2019-05-05T06:38:24.208Z,3.70
2019-05-05T06:41:09.877Z,3.90
2019-05-05T06:43:59.777Z,4.20
2019-05-05T06:46:29.745Z,4.40
2019-05-05T06:48:57.214Z,4.70
2019-05-05T06:51:24.704Z,4.80
2019-05-05T06:53:54.023Z,5.10
2019-05-05T06:56:23.603Z,5.30
2019-05-05T06:58:50.787Z,5.50
2019-05-05T07:01:18.327Z,5.60
2019-05-05T07:03:45.950Z,5.80
2019-05-05T07:06:14.635Z,5.90
2019-05-05T07:08:43.887Z,5.90
2019-05-05T07:11:11.582Z,5.80
2019-05-05T07:13:39.134Z,5.80
2019-05-05T07:16:06.585Z,5.90
2019-05-05T07:18:34.346Z,5.80
2019-05-05T07:21:03.676Z,5.90
2019-05-05T07:23:31.046Z,6.00
2019-05-05T07:25:58.555Z,6.20
2019-05-05T07:28:26.058Z,6.10
2019-05-05T07:30:54.769Z,6.20
2019-05-05T07:33:23.873Z,6.30
2019-05-05T07:36:02.912Z,6.50
2019-05-05T07:38:26.275Z,6.60
2019-05-05T07:40:54.549Z,6.70
2019-05-05T07:43:24.423Z,6.80
2019-05-05T07:45:53.892Z,6.80
2019-05-05T07:48:21.514Z,6.80
2019-05-05T07:50:59.777Z,7.10
2019-05-05T07:53:18.586Z,7.10
2019-05-05T07:55:46.083Z,7.40
2019-05-05T07:58:14.017Z,7.70
2019-05-05T08:00:43.475Z,8.30
2019-05-05T08:03:10.896Z,8.30
2019-05-05T08:05:38.459Z,8.10
2019-05-05T08:08:06.009Z,8.50
2019-05-05T08:10:34.389Z,8.90
2019-05-05T08:13:02.065Z,9.80
2019-05-05T08:15:29.684Z,9.70
2019-05-05T08:18:16.706Z,10.30
2019-05-05T08:20:47.181Z,10.50
2019-05-05T08:23:30.251Z,9.60
2019-05-05T08:26:06.112Z,9.30
2019-05-05T08:28:51.408Z,9.00
2019-05-05T08:31:24.994Z,9.20
2019-05-05T08:33:54.673Z,9.10
2019-05-05T08:36:23.519Z,9.20
2019-05-05T08:38:51.363Z,8.70
2019-05-05T08:41:18.935Z,8.90
2019-05-05T08:43:46.809Z,8.80
2019-05-05T08:46:14.727Z,8.40
2019-05-05T08:48:44.557Z,8.30
2019-05-05T08:51:13.935Z,8.30
2019-05-05T08:53:47.689Z,8.40
2019-05-05T08:56:14.606Z,8.20
2019-05-05T08:58:43.803Z,8.30
2019-05-05T09:01:11.590Z,8.30
2019-05-05T09:03:39.188Z,8.30
2019-05-05T09:06:06.734Z,8.40
2019-05-05T09:08:34.828Z,8.50
2019-05-05T09:11:04.509Z,8.70
2019-05-05T09:13:33.873Z,8.70
2019-05-05T09:16:03.573Z,9.00
2019-05-05T09:18:31.076Z,9.20
2019-05-05T09:20:58.583Z,9.00
2019-05-05T09:23:26.535Z,9.00
2019-05-05T09:26:34.317Z,8.80
2019-05-05T09:29:19.231Z,9.00
2019-05-05T09:31:46.770Z,8.80
2019-05-05T09:34:14.750Z,8.80
2019-05-05T09:36:43.976Z,8.80
2019-05-05T09:39:13.606Z,8.60
2019-05-05T09:41:40.862Z,8.90
2019-05-05T09:44:08.592Z,9.00
2019-05-05T09:46:39.693Z,9.10
2019-05-05T09:49:07.323Z,9.20
2019-05-05T09:51:35.020Z,9.30
2019-05-05T09:54:13.787Z,8.90
2019-05-05T09:56:33.928Z,9.10
2019-05-05T09:59:03.676Z,9.10
2019-05-05T10:01:30.771Z,9.10
2019-05-05T10:04:07.703Z,9.20
2019-05-05T10:06:35.886Z,9.30
2019-05-05T10:09:06.300Z,9.50
2019-05-05T10:11:35.405Z,9.60
2019-05-05T10:14:03.974Z,9.70
2019-05-05T10:16:31.462Z,9.80
2019-05-05T10:18:58.952Z,9.70
2019-05-05T10:21:26.526Z,9.30
2019-05-05T10:23:55.867Z,9.20
2019-05-05T10:26:23.860Z,9.80
2019-05-05T10:28:53.604Z,10.10
2019-05-05T10:31:20.756Z,10.00
2019-05-05T10:33:53.958Z,10.00
2019-05-05T10:36:21.490Z,10.00
2019-05-05T10:38:53.893Z,10.00
2019-05-05T10:41:21.344Z,10.00
2019-05-05T10:43:48.812Z,10.40
2019-05-05T10:49:44.752Z,10.90
2019-05-05T10:52:14.066Z,10.90
2019-05-05T10:54:44.587Z,10.80
2019-05-05T10:57:10.940Z,11.00
2019-05-05T10:59:38.419Z,12.20
2019-05-05T11:02:05.949Z,13.20
2019-05-05T11:04:33.642Z,12.70
2019-05-05T11:07:01.407Z,12.50
2019-05-05T11:09:28.969Z,12.60
2019-05-05T11:11:56.851Z,12.30
2019-05-05T11:14:24.785Z,12.00
2019-05-05T11:16:54.489Z,12.80
2019-05-05T11:19:21.669Z,12.60
2019-05-05T11:21:49.200Z,12.20
2019-05-05T11:24:16.927Z,12.20
2019-05-05T11:26:44.625Z,12.10
2019-05-05T11:29:13.578Z,13.60
2019-05-05T11:31:41.189Z,12.90
2019-05-05T11:34:14.000Z,12.10
2019-05-05T11:36:57.225Z,12.50
2019-05-05T11:44:56.930Z,13.00
2019-05-05T11:47:24.903Z,12.60
2019-05-05T11:49:54.620Z,12.30
2019-05-05T11:52:21.696Z,11.70
2019-05-05T11:54:49.316Z,11.90
2019-05-05T11:57:16.848Z,10.90
2019-05-05T11:59:44.695Z,10.80
2019-05-05T12:02:13.968Z,10.80
2019-05-05T12:04:42.187Z,11.10
2019-05-05T12:07:10.040Z,11.20
2019-05-05T12:09:48.910Z,12.30
2019-05-05T12:12:16.426Z,14.20
2019-05-05T12:14:44.235Z,14.80
2019-05-05T12:17:13.853Z,15.40
2019-05-05T12:19:43.410Z,16.10
2019-05-05T12:22:11.001Z,16.30
2019-05-05T12:24:44.271Z,15.60
2019-05-05T12:27:29.295Z,15.10
2019-05-05T12:30:04.090Z,14.80
2019-05-05T12:32:34.666Z,14.20
2019-05-05T12:35:01.635Z,13.50
2019-05-05T12:37:29.607Z,12.60
2019-05-05T12:39:57.077Z,12.60
2019-05-05T12:42:25.031Z,13.60
2019-05-05T12:45:04.370Z,14.50
2019-05-05T12:47:42.055Z,13.90
2019-05-05T12:50:09.990Z,13.60
2019-05-05T12:52:37.513Z,14.00
2019-05-05T12:55:05.626Z,15.40
2019-05-05T12:57:34.293Z,16.20
2019-05-05T13:00:04.209Z,16.50
2019-05-05T13:02:31.817Z,15.20
2019-05-05T13:04:59.291Z,15.30
2019-05-05T13:07:26.754Z,14.90
2019-05-05T13:09:54.568Z,14.80
2019-05-05T13:12:23.861Z,14.50
2019-05-05T13:14:51.361Z,14.00
2019-05-05T13:17:18.867Z,14.00
2019-05-05T13:19:53.207Z,13.40
2019-05-05T13:22:39.000Z,13.10
2019-05-05T13:25:22.462Z,13.40
2019-05-05T13:27:49.945Z,13.40
2019-05-05T13:30:17.511Z,13.20
2019-05-05T13:32:45.057Z,13.20
2019-05-05T13:35:14.375Z,13.20
2019-05-05T13:37:44.252Z,13.30
2019-05-05T13:40:11.596Z,13.00
2019-05-05T13:42:39.196Z,12.40
2019-05-05T13:45:20.951Z,12.20
2019-05-05T13:47:48.432Z,12.20
2019-05-05T13:50:21.099Z,12.20
2019-05-05T13:52:48.601Z,12.30
2019-05-05T13:55:16.222Z,12.40
2019-05-05T13:57:44.423Z,12.10
2019-05-05T14:00:15.335Z,12.20
2019-05-05T14:02:43.938Z,12.30
2019-05-05T14:05:13.487Z,12.20
2019-05-05T14:07:43.674Z,12.90
2019-05-05T14:10:14.265Z,12.90
2019-05-05T14:12:43.759Z,12.80
2019-05-05T14:15:15.726Z,13.10
2019-05-05T14:17:44.033Z,12.80
2019-05-05T14:20:14.679Z,12.50
2019-05-05T14:22:43.809Z,12.40
2019-05-05T14:25:31.002Z,12.20
2019-05-05T14:27:58.481Z,12.50
2019-05-05T14:30:45.287Z,12.40
2019-05-05T14:33:18.896Z,12.20
2019-05-05T14:36:05.695Z,12.60
2019-05-05T14:38:38.678Z,12.50
2019-05-05T14:41:06.497Z,12.60
2019-05-05T14:43:36.653Z,13.30
2019-05-05T14:46:04.171Z,13.20
2019-05-05T14:48:33.563Z,14.20
2019-05-05T14:51:01.418Z,15.70
2019-05-05T14:53:28.915Z,16.80
2019-05-05T14:55:56.796Z,18.70
2019-05-05T14:58:26.023Z,19.40
2019-05-05T15:00:53.524Z,18.80
2019-05-05T15:03:21.002Z,17.60
2019-05-05T15:06:03.972Z,17.90
2019-05-05T15:08:56.614Z,17.60
2019-05-05T15:11:49.650Z,17.90
2019-05-05T15:14:17.122Z,17.80
2019-05-05T15:16:44.604Z,18.80
2019-05-05T15:19:14.582Z,20.10
2019-05-05T15:21:44.157Z,19.20
2019-05-05T15:24:13.686Z,19.10
2019-05-05T15:26:51.243Z,18.00
2019-05-05T15:29:10.201Z,16.60
2019-05-05T15:31:37.647Z,14.80
2019-05-05T15:34:05.121Z,14.40
2019-05-05T15:36:33.428Z,13.80
2019-05-05T15:39:01.270Z,13.50
2019-05-05T15:41:28.767Z,13.00
2019-05-05T15:43:56.598Z,13.00
2019-05-05T15:46:24.474Z,12.60
2019-05-05T15:48:51.980Z,12.30
2019-05-05T15:51:19.783Z,12.20
2019-05-05T15:53:47.278Z,12.00
2019-05-05T15:56:14.707Z,12.10
2019-05-05T15:58:43.536Z,11.60
2019-05-05T16:01:11.592Z,11.50
2019-05-05T16:03:39.140Z,11.80
2019-05-05T16:06:07.182Z,11.90
2019-05-05T16:08:34.748Z,12.10
2019-05-05T16:11:03.705Z,12.10
2019-05-05T16:13:35.092Z,12.20
2019-05-05T16:16:35.667Z,12.00
2019-05-05T16:19:14.032Z,11.70
2019-05-05T16:22:03.888Z,12.80
2019-05-05T16:25:09.170Z,13.70
2019-05-05T16:27:36.975Z,13.90
2019-05-05T16:30:05.863Z,14.40
2019-05-05T16:32:33.838Z,14.00
2019-05-05T16:35:05.482Z,13.50
2019-05-05T16:37:30.612Z,13.10
2019-05-05T16:39:58.122Z,12.80
2019-05-05T16:42:25.885Z,13.10
2019-05-05T16:44:53.899Z,14.00
2019-05-05T16:47:21.414Z,14.50
2019-05-05T16:49:48.884Z,15.60
2019-05-05T16:52:23.976Z,16.70
2019-05-05T16:55:15.878Z,16.60
2019-05-05T16:57:43.706Z,15.10
2019-05-05T17:00:12.497Z,14.00
2019-05-05T17:02:39.973Z,13.80
2019-05-05T17:05:07.606Z,13.40
2019-05-05T17:07:35.055Z,13.10
2019-05-05T17:10:06.075Z,12.50
2019-05-05T17:12:33.770Z,12.20
2019-05-05T17:15:19.704Z,12.70
2019-05-05T17:17:56.208Z,12.60
2019-05-05T17:20:24.915Z,12.60
2019-05-05T17:23:17.575Z,13.40
2019-05-05T17:25:45.012Z,13.00
2019-05-05T17:28:13.633Z,13.10
2019-05-05T17:30:43.517Z,12.90
2019-05-05T17:33:10.806Z,12.70
2019-05-05T17:35:38.327Z,12.60
2019-05-05T17:38:13.728Z,12.70
2019-05-05T17:40:59.557Z,12.70
2019-05-05T17:43:47.399Z,12.20
2019-05-05T17:46:34.383Z,11.60
2019-05-05T17:49:36.736Z,11.20
2019-05-05T17:52:35.760Z,11.20
2019-05-05T17:55:24.219Z,10.90
2019-05-05T17:58:01.206Z,10.60
2019-05-05T18:00:21.491Z,10.60
2019-05-05T18:02:49.007Z,10.40
2019-05-05T18:05:16.857Z,10.20
2019-05-05T18:07:46.462Z,10.10
2019-05-05T18:10:20.745Z,10.00
2019-05-05T18:13:15.238Z,9.90
2019-05-05T18:15:49.523Z,9.80
2019-05-05T18:18:17.094Z,9.70
2019-05-05T18:20:44.967Z,9.60
2019-05-05T18:23:13.854Z,9.60
2019-05-05T18:25:41.407Z,9.50
2019-05-05T18:28:17.010Z,9.40
2019-05-05T18:30:38.285Z,9.30
2019-05-05T18:33:06.388Z,9.20
2019-05-05T18:35:34.151Z,9.20
2019-05-05T18:38:01.668Z,9.00
2019-05-05T18:40:29.388Z,9.00
2019-05-05T18:42:58.710Z,8.90
2019-05-05T18:45:26.186Z,8.80
2019-05-05T18:47:53.887Z,8.70
2019-05-05T18:50:21.806Z,8.60
2019-05-05T18:52:49.243Z,8.60
2019-05-05T18:55:16.706Z,8.50
2019-05-05T18:57:44.206Z,8.50
2019-05-05T19:00:14.265Z,8.40
2019-05-05T19:02:53.587Z,8.40
2019-05-05T19:05:36.009Z,8.20
2019-05-05T19:08:14.320Z,8.10
2019-05-05T19:10:43.382Z,8.00
2019-05-05T19:13:11.013Z,8.00
2019-05-05T19:15:38.564Z,8.00
2019-05-05T19:18:06.536Z,7.90
2019-05-05T19:20:54.250Z,7.90
2019-05-05T19:23:22.006Z,7.90
2019-05-05T19:25:49.496Z,7.90
2019-05-05T19:28:17.013Z,7.90
2019-05-05T19:30:44.479Z,7.80
2019-05-05T19:33:13.402Z,7.80
2019-05-05T19:35:45.078Z,7.80
2019-05-05T19:38:11.123Z,7.70
2019-05-05T19:40:38.625Z,7.60
2019-05-05T19:43:06.411Z,7.60
2019-05-05T19:45:34.417Z,7.60
2019-05-05T19:48:05.559Z,7.50
2019-05-05T19:50:40.350Z,7.40
2019-05-05T19:53:21.806Z,7.40
2019-05-05T19:55:49.644Z,7.50
2019-05-05T19:58:17.470Z,7.50
2019-05-05T20:00:45.006Z,7.50
2019-05-05T20:03:14.223Z,7.50
2019-05-05T20:05:44.031Z,7.40
2019-05-05T20:08:11.577Z,7.40
2019-05-05T20:10:39.105Z,7.30
2019-05-05T20:13:26.334Z,7.30
2019-05-05T20:16:20.531Z,7.20
2019-05-05T20:18:50.256Z,7.20
2019-05-05T20:21:17.295Z,7.10
2019-05-05T20:23:44.764Z,7.00
2019-05-05T20:26:14.393Z,7.00
2019-05-05T20:28:41.844Z,6.90
2019-05-05T20:31:09.346Z,6.90
2019-05-05T20:33:46.382Z,6.90
2019-05-05T20:36:17.162Z,6.80
2019-05-05T20:38:47.875Z,6.80
2019-05-05T20:41:16.375Z,6.80
2019-05-05T20:43:44.889Z,6.80
2019-05-05T20:46:12.535Z,6.80
2019-05-05T20:48:41.350Z,6.80
2019-05-05T20:51:08.987Z,6.80
2019-05-05T20:53:36.448Z,6.80
2019-05-05T20:56:04.440Z,6.80
2019-05-05T20:58:33.644Z,6.70
2019-05-05T21:01:01.359Z,6.70
2019-05-05T21:03:28.863Z,6.70
2019-05-05T21:05:56.311Z,6.70
2019-05-05T21:08:23.859Z,6.60
2019-05-05T21:10:53.548Z,6.60
2019-05-05T21:13:23.177Z,6.50
2019-05-05T21:15:53.902Z,6.50
2019-05-05T21:18:20.416Z,6.60
2019-05-05T21:20:47.957Z,6.60
2019-05-05T21:23:35.118Z,6.50
2019-05-05T21:26:10.079Z,6.50
2019-05-05T21:28:37.582Z,6.50
2019-05-05T21:31:05.056Z,6.50
2019-05-05T21:33:34.967Z,6.40
2019-05-05T21:36:04.993Z,6.40
2019-05-05T21:38:35.412Z,6.30
2019-05-05T21:41:04.215Z,6.30
2019-05-05T21:43:31.774Z,6.20
2019-05-05T21:45:59.235Z,6.10
2019-05-05T21:48:26.852Z,6.10
2019-05-05T21:51:04.656Z,6.10
2019-05-05T21:53:51.848Z,6.00
2019-05-05T21:56:30.557Z,6.00
2019-05-05T21:58:58.535Z,5.80
2019-05-05T22:01:28.158Z,5.70
2019-05-05T22:03:55.847Z,5.70
2019-05-05T22:06:24.133Z,5.80
2019-05-05T22:08:53.306Z,5.70
2019-05-05T22:11:20.959Z,5.70
2019-05-05T22:13:48.472Z,5.60
2019-05-05T22:16:16.195Z,5.50
2019-05-05T22:18:44.639Z,5.50
2019-05-05T22:21:28.040Z,5.40
2019-05-05T22:24:35.689Z,5.40
2019-05-05T22:27:04.580Z,5.30
2019-05-05T22:29:34.119Z,5.40
2019-05-05T22:32:01.285Z,5.30
2019-05-05T22:34:28.764Z,5.30
2019-05-05T22:36:56.237Z,5.20
2019-05-05T22:39:24.380Z,5.30
2019-05-05T22:41:54.164Z,5.10
2019-05-05T22:44:21.391Z,5.00
2019-05-05T22:46:48.879Z,4.90
2019-05-05T22:49:16.326Z,4.90
2019-05-05T22:51:44.706Z,4.90
2019-05-05T22:54:14.721Z,4.80
2019-05-05T22:56:41.637Z,4.80
2019-05-05T22:59:09.138Z,4.90
2019-05-05T23:01:36.581Z,4.80
2019-05-05T23:04:24.005Z,4.90
2019-05-05T23:06:54.855Z,4.90
2019-05-05T23:09:22.344Z,4.70
2019-05-05T23:11:49.815Z,4.80
2019-05-05T23:14:29.687Z,4.80
2019-05-05T23:17:27.757Z,4.80
2019-05-05T23:20:17.731Z,4.80
2019-05-05T23:23:07.789Z,4.80
2019-05-05T23:25:38.534Z,4.80
2019-05-05T23:28:06.044Z,4.70
2019-05-05T23:30:41.425Z,4.70
2019-05-05T23:33:02.828Z,4.70
2019-05-05T23:35:30.308Z,4.60
2019-05-05T23:37:57.755Z,4.60
2019-05-05T23:40:26.762Z,4.50
2019-05-05T23:42:54.391Z,4.50
2019-05-05T23:45:22.014Z,4.50
2019-05-05T23:47:49.471Z,4.50
2019-05-05T23:50:17.400Z,4.50
2019-05-05T23:52:44.904Z,4.50
2019-05-05T23:55:14.298Z,4.60
2019-05-05T23:57:43.642Z,4.60
